EST,Max TemperatureF,Mean TemperatureF,Min TemperatureF,Max Dew PointF,MeanDew PointF,Min DewpointF,Max Humidity, Mean Humidity, Min Humidity, Max Sea Level PressureIn, Mean Sea Level PressureIn, Min Sea Level PressureIn, Max VisibilityMiles, Mean VisibilityMiles, Min VisibilityMiles, Max Wind SpeedMPH, Mean Wind SpeedMPH, Max Gust SpeedMPH,PrecipitationIn, CloudCover, Events, WindDirDegrees
2013-2-1,30,26,21,13,6,1,53,41,32,30.09,29.82,29.62,10,10,10,21,13,37,0.00,2,,286
2013-2-2,28,22,16,13,3,0,62,44,33,30.24,30.13,30.05,10,10,9,17,9,24,0.00,2,,241
2013-2-3,28,22,17,21,17,14,88,75,60,30.05,29.89,29.74,10,8,4,6,1,,0.00,7,Snow,352
2013-2-4,28,24,19,14,6,2,71,49,34,29.94,29.83,29.73,10,10,10,23,11,36,0.00,3,,281
2013-2-5,30,24,19,20,10,4,81,55,41,30.03,29.97,29.94,10,9,3,9,4,,0.00,5,Snow,171
2013-2-6,37,28,19,22,15,1,89,63,34,30.31,30.03,29.91,10,8,2,16,3,25,0.00,5,Snow,289
2013-2-7,30,21,12,6,1,-3,71,41,28,30.53,30.47,30.34,10,10,10,13,3,,0.00,4,,11
2013-2-8,24,20,17,18,14,-1,86,74,34,30.47,30.11,29.70,10,4,0,22,6,29,0.36,8,Fog-Snow,20
2013-2-9,23,19,14,18,11,-2,86,72,49,30.23,29.80,29.65,10,3,0,23,17,37,0.13,4,Fog-Snow,329
2013-2-10,39,24,9,10,2,-6,84,46,23,30.40,30.35,30.25,10,9,1,13,6,,0.00,0,,301
2013-2-11,42,27,12,39,26,7,96,87,71,30.34,29.90,29.61,10,4,1,17,1,28,0.19,7,Rain-Snow,350
2013-2-12,42,38,35,28,25,21,68,60,51,29.88,29.74,29.65,10,10,10,26,12,36,0.00,5,,278
2013-2-13,41,34,26,23,21,18,75,60,41,29.87,29.81,29.73,10,10,10,9,4,,0.00,3,,298
2013-2-14,44,32,21,22,20,17,84,61,35,29.99,29.88,29.73,10,10,10,12,3,,0.00,2,,311
2013-2-15,51,35,19,29,25,17,89,70,39,29.99,29.95,29.90,10,9,4,14,4,24,0.00,1,,225
2013-2-16,37,32,27,32,27,15,96,79,52,29.96,29.91,29.75,10,6,1,15,4,20,0.03,8,Snow,343
2013-2-17,27,22,17,16,7,-2,86,57,40,29.72,29.54,29.43,10,5,1,30,17,50,0.01,8,Snow,320
2013-2-18,30,21,12,1,-1,-3,52,38,24,30.16,29.99,29.73,10,10,10,26,16,39,0.00,0,,296
2013-2-19,45,34,23,37,28,2,100,77,39,30.17,29.81,29.58,10,6,0,12,3,21,0.13,6,Fog-Rain,179
2013-2-20,39,32,26,35,18,9,89,59,40,29.78,29.66,29.55,10,10,10,23,13,34,0.01,4,Rain,288
2013-2-21,30,26,23,15,12,9,66,54,43,30.23,29.92,29.78,10,10,10,22,15,32,0.00,1,,304
2013-2-22,39,29,19,23,18,15,85,59,39,30.40,30.34,30.26,10,10,10,12,6,18,0.00,1,,61
2013-2-23,37,32,28,32,28,23,96,81,70,30.32,30.13,29.93,10,8,3,10,3,,0.02,8,Rain-Snow,114
2013-2-24,35,34,32,32,32,30,96,91,81,29.91,29.80,29.72,10,2,0,12,5,,0.81,8,Fog-Rain-Snow,342
2013-2-25,37,28,19,32,27,18,100,88,75,30.25,30.06,29.90,10,6,0,7,2,,0.00,7,Fog-Snow,343
2013-2-26,41,36,30,31,29,24,96,76,57,30.34,30.28,30.17,10,9,2,9,2,,0.00,5,,80
2013-2-27,41,37,33,39,34,27,97,90,70,30.16,29.88,29.61,10,4,1,14,6,25,1.22,8,Rain-Snow,46
2013-2-28,44,38,32,36,33,30,96,86,71,29.64,29.59,29.54,10,10,7,7,3,,0.00,7,,326